Bow Clipper — LAUU4 — position and weather

sailwx.info

Track history (hours):
 
Tides and Currents Weather Stations Pressure Air Temp Water Temp Dewpoint Dewpoint Depression Visibility Wind Speed Wind Dir Waves Ship Positions

Bow Clipper

Last reported at 2017-Dec-11 16:46 UTC. Time now 2017-Dec-13 13:15 UTC.
Position N 29°37' W 095°01'.

Length 188 m; draft 6.1 m.

Type: Ship (hazmat cat B). MMSI: 258946991.

Date/timePositionNaut miles runAvg speedWind from/ knotsBaromVisibWave heightAir tempDewpointWater temp
2017-Dec-11 16:46N 29°37' W 095°01'0 0.0
2017-Dec-11 16:28N 29°37' W 095°01'0 0.0
2017-Dec-11 15:58N 29°37' W 095°01'0 0.0
2017-Dec-11 14:52N 29°37' W 095°01'0 0.0
2017-Dec-11 14:25N 29°37' W 095°01'0 0.0
2017-Dec-11 13:55N 29°37' W 095°01'0 0.0
2017-Dec-11 13:25N 29°37' W 095°01'0 0.0
2017-Dec-11 12:51N 29°37' W 095°01'0 0.0
2017-Dec-11 12:27N 29°37' W 095°01'0 0.0
2017-Dec-11 12:00N 29°37' W 095°01'0 0.0
2017-Dec-11 11:29N 29°37' W 095°01'0 0.0
2017-Dec-11 10:53N 29°37' W 095°01'0 0.0
2017-Dec-11 10:29N 29°37' W 095°01'0 0.0
2017-Dec-11 09:59N 29°37' W 095°01'0 0.0
2017-Dec-11 09:26N 29°37' W 095°01'0 0.0
2017-Dec-11 08:59N 29°37' W 095°01'0 0.0
2017-Dec-11 08:26N 29°37' W 095°01'0 0.0
2017-Dec-11 07:56N 29°37' W 095°01'0 0.0
2017-Dec-11 07:29N 29°37' W 095°01'0 0.0
2017-Dec-11 06:59N 29°37' W 095°01'0 0.0
2017-Dec-11 06:26N 29°37' W 095°01'0 0.0
2017-Dec-11 05:56N 29°37' W 095°01'0 0.0
2017-Dec-11 05:29N 29°37' W 095°01'0 0.0
2017-Dec-11 04:59N 29°37' W 095°01'0 0.0
2017-Dec-11 04:29N 29°37' W 095°01'0 0.0
2017-Dec-11 03:59N 29°37' W 095°01'0 0.0
2017-Dec-11 03:29N 29°37' W 095°01'0 0.0
2017-Dec-11 02:59N 29°37' W 095°01'0 0.0
2017-Dec-11 02:29N 29°37' W 095°01'0 0.0
2017-Dec-11 01:56N 29°37' W 095°01'0 0.0
2017-Dec-11 01:29N 29°37' W 095°01'0 0.0
2017-Dec-11 00:56N 29°37' W 095°01'0 0.0
2017-Dec-11 00:29N 29°37' W 095°01'0 0.0
2017-Dec-10 23:56N 29°37' W 095°01'0 0.0
2017-Dec-10 23:29N 29°37' W 095°01'0 0.0
2017-Dec-10 22:56N 29°37' W 095°01'0 0.0
2017-Dec-10 22:29N 29°37' W 095°01'0 0.0
2017-Dec-10 22:00N 29°37' W 095°01'0 0.2
2017-Dec-10 21:30N 29°37' W 095°01'2 4.0
2017-Dec-10 21:00N 29°37' W 094°59'5 9.8
2017-Dec-10 20:30N 29°34' W 094°55'713.7
2017-Dec-10 20:00N 29°28' W 094°51'713.9
2017-Dec-10 19:28N 29°21' W 094°47'5 0.1
2017-Dec-08 20:32N 29°26' W 094°50'114.4
2017-Dec-08 20:29N 29°26' W 094°50'714.0
2017-Dec-08 20:00N 29°32' W 094°54'613.1
2017-Dec-08 19:30N 29°38' W 094°58'5 9.8
2017-Dec-08 19:00N 29°42' W 095°01'4 7.4
2017-Dec-08 18:30N 29°45' W 095°04'3 5.8
2017-Dec-08 18:00N 29°44' W 095°07'3 6.1
2017-Dec-08 17:30N 29°45' W 095°11'3 5.7
2017-Dec-08 17:00N 29°44' W 095°13'3 5.3
2017-Dec-08 16:30N 29°44' W 095°17'1 2.0
2017-Dec-08 16:00N 29°45' W 095°17'0 0.0
2017-Dec-08 15:18N 29°45' W 095°17'0 0.0
2017-Dec-08 15:00N 29°45' W 095°17'0 0.0
2017-Dec-08 14:30N 29°45' W 095°17'0 0.0
2017-Dec-08 14:00N 29°45' W 095°17'0 0.0
2017-Dec-08 13:30N 29°45' W 095°17'0 0.0
2017-Dec-08 13:00N 29°45' W 095°17'0 0.0
2017-Dec-08 12:30N 29°45' W 095°17'0 0.0
2017-Dec-08 12:00N 29°45' W 095°17'0 0.0
2017-Dec-08 11:24N 29°45' W 095°17'0 0.0
2017-Dec-08 11:00N 29°45' W 095°17'0 0.0
2017-Dec-08 10:24N 29°45' W 095°17'0 0.0
2017-Dec-08 10:00N 29°45' W 095°17'0 0.0
2017-Dec-08 09:18N 29°45' W 095°17'0 0.0
2017-Dec-08 08:54N 29°45' W 095°17'0 0.0
2017-Dec-08 08:27N 29°45' W 095°17'0 0.0
2017-Dec-08 07:56N 29°45' W 095°17'0 0.0
2017-Dec-08 07:26N 29°45' W 095°17'0 0.0
2017-Dec-08 06:56N 29°45' W 095°17'0 0.0
2017-Dec-08 06:26N 29°45' W 095°17'0 0.0
2017-Dec-08 05:56N 29°45' W 095°17'0 0.0
2017-Dec-08 05:26N 29°45' W 095°17'0 0.0
2017-Dec-08 04:58N 29°45' W 095°17'0 0.0
2017-Dec-08 04:25N 29°45' W 095°17'0 0.0
2017-Dec-08 03:46N 29°45' W 095°17'0 0.0
2017-Dec-08 03:30N 29°45' W 095°17'0 0.0
2017-Dec-08 02:59N 29°45' W 095°17'0 0.0
2017-Dec-08 02:26N 29°45' W 095°17'0 0.0
2017-Dec-08 01:51N 29°45' W 095°17'0 0.0
2017-Dec-08 01:27N 29°45' W 095°17'0 0.0
2017-Dec-08 01:00N 29°45' W 095°17'0 0.0
2017-Dec-08 00:31N 29°45' W 095°17'0 1.0
2017-Dec-08 00:00N 29°45' W 095°17'2 3.2
2017-Dec-07 23:30N 29°44' W 095°16'2 4.7
2017-Dec-07 23:00N 29°44' W 095°14'3 5.1
2017-Dec-07 22:30N 29°45' W 095°11'3 6.0
2017-Dec-07 22:00N 29°44' W 095°08'3 6.4
2017-Dec-07 21:29N 29°46' W 095°04'4 7.8
2017-Dec-07 21:00N 29°43' W 095°01'4 8.9
2017-Dec-07 20:30N 29°39' W 094°58'612.6
2017-Dec-07 20:00N 29°34' W 094°55'612.5
2017-Dec-07 19:30N 29°29' W 094°51'  
2017-Dec-04 10:24N 29°37' W 095°01'0 0.0
2017-Dec-04 10:00N 29°37' W 095°01'0 0.0
2017-Dec-04 09:30N 29°37' W 095°01'0 0.0
2017-Dec-04 09:00N 29°37' W 095°01'0 0.0
2017-Dec-04 08:30N 29°37' W 095°01'0 0.0
2017-Dec-04 07:57N 29°37' W 095°01'0 0.0
2017-Dec-04 07:30N 29°37' W 095°01'0 0.0
2017-Dec-04 07:00N 29°37' W 095°01'0 0.0
2017-Dec-04 06:30N 29°37' W 095°01'0 0.0
2017-Dec-04 06:00N 29°37' W 095°01'0 0.0
2017-Dec-04 05:30N 29°37' W 095°01'0 0.0
2017-Dec-04 05:00N 29°37' W 095°01'0 0.0
2017-Dec-04 04:30N 29°37' W 095°01'0 0.0
2017-Dec-04 04:00N 29°37' W 095°01'0 0.0
2017-Dec-04 03:30N 29°37' W 095°01'0 0.0
2017-Dec-04 03:00N 29°37' W 095°01'0 0.0
2017-Dec-04 02:30N 29°37' W 095°01'0 0.0
2017-Dec-04 02:00N 29°37' W 095°01'0 0.0
2017-Dec-04 01:30N 29°37' W 095°01'0 0.0
2017-Dec-04 01:00N 29°37' W 095°01'0 0.0
2017-Dec-04 00:30N 29°37' W 095°01'0 0.0
2017-Dec-04 00:00N 29°37' W 095°01'0 0.0
2017-Dec-03 23:30N 29°37' W 095°01'0 0.0
2017-Dec-03 23:00N 29°37' W 095°01'0 0.0
2017-Dec-03 22:30N 29°37' W 095°01'0 0.0
2017-Dec-03 22:00N 29°37' W 095°01'0 0.0
2017-Dec-03 21:30N 29°37' W 095°01'0 0.0
2017-Dec-03 21:00N 29°37' W 095°01'0 0.0
2017-Dec-03 20:30N 29°37' W 095°01'0 0.0
2017-Dec-03 20:00N 29°37' W 095°01'0 0.0
2017-Dec-03 19:30N 29°37' W 095°01'0 0.0
2017-Dec-03 19:00N 29°37' W 095°01'0 0.0
2017-Dec-03 18:30N 29°37' W 095°01'0 0.0
2017-Dec-03 18:00N 29°37' W 095°01'0 0.0
2017-Dec-03 17:30N 29°37' W 095°01'0 0.0
2017-Dec-03 17:00N 29°37' W 095°01'0 0.0
2017-Dec-03 16:30N 29°37' W 095°01'0 0.0
2017-Dec-03 16:00N 29°37' W 095°01'0 0.0
2017-Dec-03 15:30N 29°37' W 095°01'0 0.0
2017-Dec-03 15:00N 29°37' W 095°01'0 0.0
2017-Dec-03 14:30N 29°37' W 095°01'0 0.0
2017-Dec-03 14:00N 29°37' W 095°01'0 0.0
2017-Dec-03 13:30N 29°37' W 095°01'0 0.0
2017-Dec-03 13:00N 29°37' W 095°01'0 0.0
2017-Dec-03 12:30N 29°37' W 095°01'0 0.0
2017-Dec-03 12:00N 29°37' W 095°01'0 0.0
2017-Dec-03 11:30N 29°37' W 095°01'0 0.0
2017-Dec-03 11:00N 29°37' W 095°01'0 0.0
2017-Dec-03 10:30N 29°37' W 095°01'0 0.0
2017-Dec-03 10:00N 29°37' W 095°01'0 0.0
2017-Dec-03 09:30N 29°37' W 095°01'0 0.0
2017-Dec-03 09:00N 29°37' W 095°01'0 0.0
2017-Dec-03 08:27N 29°37' W 095°01'0 0.0
2017-Dec-03 08:00N 29°37' W 095°01'0 0.0
2017-Dec-03 07:30N 29°37' W 095°01'0 0.0
2017-Dec-03 07:00N 29°37' W 095°01'0 0.0
2017-Dec-03 06:27N 29°37' W 095°01'0 0.0
2017-Dec-03 06:00N 29°37' W 095°01'0 0.0
2017-Dec-03 05:29N 29°37' W 095°01'0 0.0
2017-Dec-03 04:59N 29°37' W 095°01'0 0.0
2017-Dec-03 04:29N 29°37' W 095°01'0 0.0
2017-Dec-03 03:56N 29°37' W 095°01'0 0.0
2017-Dec-03 03:29N 29°37' W 095°01'0 0.0
2017-Dec-03 02:59N 29°37' W 095°01'0 0.0
2017-Dec-03 02:29N 29°37' W 095°01'0 0.0
2017-Dec-03 01:59N 29°37' W 095°01'0 0.0
2017-Dec-03 01:29N 29°37' W 095°01'0 0.0
2017-Dec-03 00:59N 29°37' W 095°01'0 0.0
2017-Dec-03 00:26N 29°37' W 095°01'0 0.0
2017-Dec-02 23:59N 29°37' W 095°01'0 0.0
2017-Dec-02 23:29N 29°37' W 095°01'0 0.0
2017-Dec-02 22:59N 29°37' W 095°01'0 0.1
2017-Dec-02 22:31N 29°37' W 095°01'3 5.7
2017-Dec-02 22:01N 29°37' W 094°58'510.8
2017-Dec-02 21:30N 29°33' W 094°54'713.0
2017-Dec-02 21:00N 29°27' W 094°51'  
Track history (hours):
 
Tides and Currents Weather Stations Pressure Air Temp Water Temp Dewpoint Dewpoint Depression Visibility Wind Speed Wind Dir Waves Ship Positions

Bow Clipper

Last reported at 2017-Dec-11 16:46 UTC. Time now 2017-Dec-13 13:15 UTC.
Position N 29°37' W 095°01'.

Length 188 m; draft 6.1 m.

Type: Ship (hazmat cat B). MMSI: 258946991.

Date/timePositionNaut miles runAvg speedWind from/ knotsBaromVisibWave heightAir tempDewpointWater temp
2017-Dec-11 16:46N 29°37' W 095°01'0 0.0
2017-Dec-11 16:28N 29°37' W 095°01'0 0.0
2017-Dec-11 15:58N 29°37' W 095°01'0 0.0
2017-Dec-11 14:52N 29°37' W 095°01'0 0.0
2017-Dec-11 14:25N 29°37' W 095°01'0 0.0
2017-Dec-11 13:55N 29°37' W 095°01'0 0.0
2017-Dec-11 13:25N 29°37' W 095°01'0 0.0
2017-Dec-11 12:51N 29°37' W 095°01'0 0.0
2017-Dec-11 12:27N 29°37' W 095°01'0 0.0
2017-Dec-11 12:00N 29°37' W 095°01'0 0.0
2017-Dec-11 11:29N 29°37' W 095°01'0 0.0
2017-Dec-11 10:53N 29°37' W 095°01'0 0.0
2017-Dec-11 10:29N 29°37' W 095°01'0 0.0
2017-Dec-11 09:59N 29°37' W 095°01'0 0.0
2017-Dec-11 09:26N 29°37' W 095°01'0 0.0
2017-Dec-11 08:59N 29°37' W 095°01'0 0.0
2017-Dec-11 08:26N 29°37' W 095°01'0 0.0
2017-Dec-11 07:56N 29°37' W 095°01'0 0.0
2017-Dec-11 07:29N 29°37' W 095°01'0 0.0
2017-Dec-11 06:59N 29°37' W 095°01'0 0.0
2017-Dec-11 06:26N 29°37' W 095°01'0 0.0
2017-Dec-11 05:56N 29°37' W 095°01'0 0.0
2017-Dec-11 05:29N 29°37' W 095°01'0 0.0
2017-Dec-11 04:59N 29°37' W 095°01'0 0.0
2017-Dec-11 04:29N 29°37' W 095°01'0 0.0
2017-Dec-11 03:59N 29°37' W 095°01'0 0.0
2017-Dec-11 03:29N 29°37' W 095°01'0 0.0
2017-Dec-11 02:59N 29°37' W 095°01'0 0.0
2017-Dec-11 02:29N 29°37' W 095°01'0 0.0
2017-Dec-11 01:56N 29°37' W 095°01'0 0.0
2017-Dec-11 01:29N 29°37' W 095°01'0 0.0
2017-Dec-11 00:56N 29°37' W 095°01'0 0.0
2017-Dec-11 00:29N 29°37' W 095°01'0 0.0
2017-Dec-10 23:56N 29°37' W 095°01'0 0.0
2017-Dec-10 23:29N 29°37' W 095°01'0 0.0
2017-Dec-10 22:56N 29°37' W 095°01'0 0.0
2017-Dec-10 22:29N 29°37' W 095°01'0 0.0
2017-Dec-10 22:00N 29°37' W 095°01'0 0.2
2017-Dec-10 21:30N 29°37' W 095°01'2 4.0
2017-Dec-10 21:00N 29°37' W 094°59'5 9.8
2017-Dec-10 20:30N 29°34' W 094°55'713.7
2017-Dec-10 20:00N 29°28' W 094°51'713.9
2017-Dec-10 19:28N 29°21' W 094°47'5 0.1
2017-Dec-08 20:32N 29°26' W 094°50'114.4
2017-Dec-08 20:29N 29°26' W 094°50'714.0
2017-Dec-08 20:00N 29°32' W 094°54'613.1
2017-Dec-08 19:30N 29°38' W 094°58'5 9.8
2017-Dec-08 19:00N 29°42' W 095°01'4 7.4
2017-Dec-08 18:30N 29°45' W 095°04'3 5.8
2017-Dec-08 18:00N 29°44' W 095°07'3 6.1
2017-Dec-08 17:30N 29°45' W 095°11'3 5.7
2017-Dec-08 17:00N 29°44' W 095°13'3 5.3
2017-Dec-08 16:30N 29°44' W 095°17'1 2.0
2017-Dec-08 16:00N 29°45' W 095°17'0 0.0
2017-Dec-08 15:18N 29°45' W 095°17'0 0.0
2017-Dec-08 15:00N 29°45' W 095°17'0 0.0
2017-Dec-08 14:30N 29°45' W 095°17'0 0.0
2017-Dec-08 14:00N 29°45' W 095°17'0 0.0
2017-Dec-08 13:30N 29°45' W 095°17'0 0.0
2017-Dec-08 13:00N 29°45' W 095°17'0 0.0
2017-Dec-08 12:30N 29°45' W 095°17'0 0.0
2017-Dec-08 12:00N 29°45' W 095°17'0 0.0
2017-Dec-08 11:24N 29°45' W 095°17'0 0.0
2017-Dec-08 11:00N 29°45' W 095°17'0 0.0
2017-Dec-08 10:24N 29°45' W 095°17'0 0.0
2017-Dec-08 10:00N 29°45' W 095°17'0 0.0
2017-Dec-08 09:18N 29°45' W 095°17'0 0.0
2017-Dec-08 08:54N 29°45' W 095°17'0 0.0
2017-Dec-08 08:27N 29°45' W 095°17'0 0.0
2017-Dec-08 07:56N 29°45' W 095°17'0 0.0
2017-Dec-08 07:26N 29°45' W 095°17'0 0.0
2017-Dec-08 06:56N 29°45' W 095°17'0 0.0
2017-Dec-08 06:26N 29°45' W 095°17'0 0.0
2017-Dec-08 05:56N 29°45' W 095°17'0 0.0
2017-Dec-08 05:26N 29°45' W 095°17'0 0.0
2017-Dec-08 04:58N 29°45' W 095°17'0 0.0
2017-Dec-08 04:25N 29°45' W 095°17'0 0.0
2017-Dec-08 03:46N 29°45' W 095°17'0 0.0
2017-Dec-08 03:30N 29°45' W 095°17'0 0.0
2017-Dec-08 02:59N 29°45' W 095°17'0 0.0
2017-Dec-08 02:26N 29°45' W 095°17'0 0.0
2017-Dec-08 01:51N 29°45' W 095°17'0 0.0
2017-Dec-08 01:27N 29°45' W 095°17'0 0.0
2017-Dec-08 01:00N 29°45' W 095°17'0 0.0
2017-Dec-08 00:31N 29°45' W 095°17'0 1.0
2017-Dec-08 00:00N 29°45' W 095°17'2 3.2
2017-Dec-07 23:30N 29°44' W 095°16'2 4.7
2017-Dec-07 23:00N 29°44' W 095°14'3 5.1
2017-Dec-07 22:30N 29°45' W 095°11'3 6.0
2017-Dec-07 22:00N 29°44' W 095°08'3 6.4
2017-Dec-07 21:29N 29°46' W 095°04'4 7.8
2017-Dec-07 21:00N 29°43' W 095°01'4 8.9
2017-Dec-07 20:30N 29°39' W 094°58'612.6
2017-Dec-07 20:00N 29°34' W 094°55'612.5
2017-Dec-07 19:30N 29°29' W 094°51'  
2017-Dec-04 10:24N 29°37' W 095°01'0 0.0
2017-Dec-04 10:00N 29°37' W 095°01'0 0.0
2017-Dec-04 09:30N 29°37' W 095°01'0 0.0
2017-Dec-04 09:00N 29°37' W 095°01'0 0.0
2017-Dec-04 08:30N 29°37' W 095°01'0 0.0
2017-Dec-04 07:57N 29°37' W 095°01'0 0.0
2017-Dec-04 07:30N 29°37' W 095°01'0 0.0
2017-Dec-04 07:00N 29°37' W 095°01'0 0.0
2017-Dec-04 06:30N 29°37' W 095°01'0 0.0
2017-Dec-04 06:00N 29°37' W 095°01'0 0.0
2017-Dec-04 05:30N 29°37' W 095°01'0 0.0
2017-Dec-04 05:00N 29°37' W 095°01'0 0.0
2017-Dec-04 04:30N 29°37' W 095°01'0 0.0
2017-Dec-04 04:00N 29°37' W 095°01'0 0.0
2017-Dec-04 03:30N 29°37' W 095°01'0 0.0
2017-Dec-04 03:00N 29°37' W 095°01'0 0.0
2017-Dec-04 02:30N 29°37' W 095°01'0 0.0
2017-Dec-04 02:00N 29°37' W 095°01'0 0.0
2017-Dec-04 01:30N 29°37' W 095°01'0 0.0
2017-Dec-04 01:00N 29°37' W 095°01'0 0.0
2017-Dec-04 00:30N 29°37' W 095°01'0 0.0
2017-Dec-04 00:00N 29°37' W 095°01'0 0.0
2017-Dec-03 23:30N 29°37' W 095°01'0 0.0
2017-Dec-03 23:00N 29°37' W 095°01'0 0.0
2017-Dec-03 22:30N 29°37' W 095°01'0 0.0
2017-Dec-03 22:00N 29°37' W 095°01'0 0.0
2017-Dec-03 21:30N 29°37' W 095°01'0 0.0
2017-Dec-03 21:00N 29°37' W 095°01'0 0.0
2017-Dec-03 20:30N 29°37' W 095°01'0 0.0
2017-Dec-03 20:00N 29°37' W 095°01'0 0.0
2017-Dec-03 19:30N 29°37' W 095°01'0 0.0
2017-Dec-03 19:00N 29°37' W 095°01'0 0.0
2017-Dec-03 18:30N 29°37' W 095°01'0 0.0
2017-Dec-03 18:00N 29°37' W 095°01'0 0.0
2017-Dec-03 17:30N 29°37' W 095°01'0 0.0
2017-Dec-03 17:00N 29°37' W 095°01'0 0.0
2017-Dec-03 16:30N 29°37' W 095°01'0 0.0
2017-Dec-03 16:00N 29°37' W 095°01'0 0.0
2017-Dec-03 15:30N 29°37' W 095°01'0 0.0
2017-Dec-03 15:00N 29°37' W 095°01'0 0.0
2017-Dec-03 14:30N 29°37' W 095°01'0 0.0
2017-Dec-03 14:00N 29°37' W 095°01'0 0.0
2017-Dec-03 13:30N 29°37' W 095°01'0 0.0
2017-Dec-03 13:00N 29°37' W 095°01'0 0.0
2017-Dec-03 12:30N 29°37' W 095°01'0 0.0
2017-Dec-03 12:00N 29°37' W 095°01'0 0.0
2017-Dec-03 11:30N 29°37' W 095°01'0 0.0
2017-Dec-03 11:00N 29°37' W 095°01'0 0.0
2017-Dec-03 10:30N 29°37' W 095°01'0 0.0
2017-Dec-03 10:00N 29°37' W 095°01'0 0.0
2017-Dec-03 09:30N 29°37' W 095°01'0 0.0
2017-Dec-03 09:00N 29°37' W 095°01'0 0.0
2017-Dec-03 08:27N 29°37' W 095°01'0 0.0
2017-Dec-03 08:00N 29°37' W 095°01'0 0.0
2017-Dec-03 07:30N 29°37' W 095°01'0 0.0
2017-Dec-03 07:00N 29°37' W 095°01'0 0.0
2017-Dec-03 06:27N 29°37' W 095°01'0 0.0
2017-Dec-03 06:00N 29°37' W 095°01'0 0.0
2017-Dec-03 05:29N 29°37' W 095°01'0 0.0
2017-Dec-03 04:59N 29°37' W 095°01'0 0.0
2017-Dec-03 04:29N 29°37' W 095°01'0 0.0
2017-Dec-03 03:56N 29°37' W 095°01'0 0.0
2017-Dec-03 03:29N 29°37' W 095°01'0 0.0
2017-Dec-03 02:59N 29°37' W 095°01'0 0.0
2017-Dec-03 02:29N 29°37' W 095°01'0 0.0
2017-Dec-03 01:59N 29°37' W 095°01'0 0.0
2017-Dec-03 01:29N 29°37' W 095°01'0 0.0
2017-Dec-03 00:59N 29°37' W 095°01'0 0.0
2017-Dec-03 00:26N 29°37' W 095°01'0 0.0
2017-Dec-02 23:59N 29°37' W 095°01'0 0.0
2017-Dec-02 23:29N 29°37' W 095°01'0 0.0
2017-Dec-02 22:59N 29°37' W 095°01'0 0.1
2017-Dec-02 22:31N 29°37' W 095°01'3 5.7
2017-Dec-02 22:01N 29°37' W 094°58'510.8
2017-Dec-02 21:30N 29°33' W 094°54'713.0
2017-Dec-02 21:00N 29°27' W 094°51'  

Dump ship's entire track history